createdAt,value
2019-01-18T00:00:37.458Z,973.33
2019-01-18T00:01:37.588Z,973.31
2019-01-18T00:02:37.445Z,973.28
2019-01-18T00:03:37.479Z,973.32
2019-01-18T00:04:37.429Z,973.35
2019-01-18T00:05:37.519Z,973.30
2019-01-18T00:06:37.421Z,973.38
2019-01-18T00:07:37.450Z,973.33
2019-01-18T00:08:37.371Z,973.32
2019-01-18T00:09:37.382Z,973.35
2019-01-18T00:10:37.343Z,973.40
2019-01-18T00:11:37.362Z,973.38
2019-01-18T00:12:37.392Z,973.42
2019-01-18T00:13:37.313Z,973.44
2019-01-18T00:14:37.323Z,973.47
2019-01-18T00:15:37.285Z,973.45
2019-01-18T00:16:37.304Z,973.44
2019-01-18T00:17:37.325Z,973.45
2019-01-18T00:18:37.285Z,973.50
2019-01-18T00:19:37.266Z,973.52
2019-01-18T00:20:37.225Z,973.51
2019-01-18T00:21:37.246Z,973.52
2019-01-18T00:22:37.216Z,973.55
2019-01-18T00:23:37.236Z,973.49
2019-01-18T00:24:37.186Z,973.57
2019-01-18T00:25:37.287Z,973.55
2019-01-18T00:26:37.197Z,973.58
2019-01-18T00:27:37.219Z,973.59
2019-01-18T00:28:37.148Z,973.59
2019-01-18T00:29:37.148Z,973.57
2019-01-18T00:30:37.143Z,973.52
2019-01-18T00:31:37.249Z,973.56
2019-01-18T00:32:37.099Z,973.51
2019-01-18T00:33:37.120Z,973.50
2019-01-18T00:34:37.070Z,973.59
2019-01-18T00:35:37.161Z,973.56
2019-01-18T00:36:37.051Z,973.60
2019-01-18T00:37:37.074Z,973.61
2019-01-18T00:38:37.032Z,973.64
2019-01-18T00:39:37.044Z,973.55
2019-01-18T00:40:37.004Z,973.66
2019-01-18T00:41:37.074Z,973.67
2019-01-18T00:42:37.517Z,973.64
2019-01-18T00:43:37.004Z,973.71
2019-01-18T00:44:36.955Z,973.66
2019-01-18T00:45:37.046Z,973.69
2019-01-18T00:46:36.955Z,973.71
2019-01-18T00:47:38.056Z,973.73
2019-01-18T00:48:36.945Z,973.73
2019-01-18T00:49:36.908Z,973.73
2019-01-18T00:50:36.977Z,973.72
2019-01-18T00:51:36.878Z,973.82
2019-01-18T00:52:36.968Z,973.83
2019-01-18T00:53:36.989Z,973.85
2019-01-18T00:54:36.838Z,973.79
2019-01-18T00:55:36.918Z,973.81
2019-01-18T00:56:36.828Z,973.82
2019-01-18T00:57:37.949Z,973.78
2019-01-18T00:58:36.810Z,973.84
2019-01-18T00:59:37.810Z,973.82
2019-01-18T01:00:36.780Z,973.84
2019-01-18T01:01:37.851Z,973.83
2019-01-18T01:02:36.781Z,973.84
2019-01-18T01:03:38.802Z,973.88
2019-01-18T01:04:36.723Z,973.89
2019-01-18T01:05:36.812Z,973.88
2019-01-18T01:06:36.713Z,973.85
2019-01-18T01:07:36.773Z,973.90
2019-01-18T01:08:36.693Z,973.92
2019-01-18T01:09:36.695Z,973.95
2019-01-18T01:10:36.684Z,973.99
2019-01-18T01:11:36.717Z,974.01
2019-01-18T01:12:36.675Z,974.06
2019-01-18T01:13:36.645Z,974.09
2019-01-18T01:14:36.615Z,974.05
2019-01-18T01:15:36.686Z,974.11
2019-01-18T01:16:36.617Z,974.09
2019-01-18T01:17:36.668Z,974.08
2019-01-18T01:18:36.577Z,974.10
2019-01-18T01:19:36.648Z,974.12
2019-01-18T01:20:36.568Z,974.08
2019-01-18T01:21:36.588Z,974.12
2019-01-18T01:22:36.558Z,974.16
2019-01-18T01:23:36.619Z,974.15
2019-01-18T01:24:36.519Z,974.18
2019-01-18T01:25:36.490Z,974.19
2019-01-18T01:26:36.520Z,974.21
2019-01-18T01:27:36.501Z,974.30
2019-01-18T01:28:36.562Z,974.30
2019-01-18T01:29:42.938Z,974.28
2019-01-18T01:30:37.452Z,974.31
2019-01-18T01:31:36.422Z,974.35
2019-01-18T01:32:37.502Z,974.29
2019-01-18T01:33:36.403Z,974.36
2019-01-18T01:34:36.464Z,974.29
2019-01-18T01:35:36.373Z,974.32
2019-01-18T01:36:36.404Z,974.30
2019-01-18T01:37:36.374Z,974.36
2019-01-18T01:38:37.354Z,974.34
2019-01-18T01:39:36.335Z,974.40
2019-01-18T01:40:36.377Z,974.44
2019-01-18T01:41:36.306Z,974.39
2019-01-18T01:42:36.356Z,974.47
2019-01-18T01:43:36.287Z,974.43
2019-01-18T01:44:36.348Z,974.44
2019-01-18T01:45:36.267Z,974.48
2019-01-18T01:46:36.268Z,974.44
2019-01-18T01:47:36.288Z,974.44
2019-01-18T01:48:36.230Z,974.47
2019-01-18T01:49:36.299Z,974.49
2019-01-18T01:50:36.229Z,974.50
2019-01-18T01:51:36.210Z,974.55
2019-01-18T01:52:36.220Z,974.50
2019-01-18T01:53:36.263Z,974.54
2019-01-18T01:54:36.172Z,974.56
2019-01-18T01:55:36.201Z,974.57
2019-01-18T01:56:36.163Z,974.58
2019-01-18T01:57:37.202Z,974.58
2019-01-18T01:58:36.122Z,974.58
2019-01-18T01:59:36.174Z,974.57
2019-01-18T02:00:36.113Z,974.59
2019-01-18T02:01:36.204Z,974.63
2019-01-18T02:02:36.108Z,974.58
2019-01-18T02:03:36.136Z,974.63
2019-01-18T02:04:36.054Z,974.63
2019-01-18T02:05:36.074Z,974.67
2019-01-18T02:06:36.047Z,974.70
2019-01-18T02:07:36.046Z,974.72
2019-01-18T02:08:36.007Z,974.73
2019-01-18T02:09:36.047Z,974.79
2019-01-18T02:10:35.976Z,974.72
2019-01-18T02:11:36.088Z,974.75
2019-01-18T02:12:35.977Z,974.75
2019-01-18T02:13:35.947Z,974.72
2019-01-18T02:14:35.988Z,974.73
2019-01-18T02:15:35.938Z,974.76
2019-01-18T02:16:42.570Z,974.76
2019-01-18T02:17:35.930Z,974.79
2019-01-18T02:18:35.889Z,974.77
2019-01-18T02:19:35.890Z,974.78
2019-01-18T02:20:35.900Z,974.79
2019-01-18T02:21:35.861Z,974.81
2019-01-18T02:22:36.891Z,974.77
2019-01-18T02:23:35.841Z,974.81
2019-01-18T02:24:35.862Z,974.83
2019-01-18T02:25:35.813Z,974.86
2019-01-18T02:26:35.893Z,974.87
2019-01-18T02:27:35.822Z,974.96
2019-01-18T02:28:35.843Z,974.99
2019-01-18T02:29:35.784Z,975.01
2019-01-18T02:30:35.774Z,975.01
2019-01-18T02:31:35.756Z,975.02
2019-01-18T02:32:35.855Z,975.02
2019-01-18T02:33:35.728Z,975.06
2019-01-18T02:34:35.716Z,975.08
2019-01-18T02:35:35.815Z,975.13
2019-01-18T02:36:35.707Z,975.22
2019-01-18T02:37:35.811Z,975.25
2019-01-18T02:38:35.667Z,975.24
2019-01-18T02:39:35.669Z,975.24
2019-01-18T02:40:35.648Z,975.33
2019-01-18T02:41:35.718Z,975.29
2019-01-18T02:42:35.619Z,975.30
2019-01-18T02:43:35.709Z,975.35
2019-01-18T02:44:35.603Z,975.42
2019-01-18T02:45:36.721Z,975.38
2019-01-18T02:46:35.770Z,975.28
2019-01-18T02:47:35.641Z,975.34
2019-01-18T02:48:35.580Z,975.33
2019-01-18T02:49:35.560Z,975.39
2019-01-18T02:50:35.541Z,975.31
2019-01-18T02:51:35.601Z,975.32
2019-01-18T02:52:35.503Z,975.39
2019-01-18T02:53:35.582Z,975.37
2019-01-18T02:54:35.483Z,975.33
2019-01-18T02:55:35.473Z,975.33
2019-01-18T02:56:35.533Z,975.32
2019-01-18T02:57:35.444Z,975.40
2019-01-18T02:58:35.525Z,975.43
2019-01-18T02:59:35.424Z,975.47
2019-01-18T03:00:35.424Z,975.53
2019-01-18T03:01:35.395Z,975.58
2019-01-18T03:02:36.466Z,975.63
2019-01-18T03:03:35.410Z,975.58
2019-01-18T03:04:36.416Z,975.63
2019-01-18T03:05:35.356Z,975.63
2019-01-18T03:06:35.347Z,975.57
2019-01-18T03:07:35.398Z,975.63
2019-01-18T03:08:35.347Z,975.66
2019-01-18T03:09:36.338Z,975.69
2019-01-18T03:10:35.300Z,975.76
2019-01-18T03:11:35.299Z,975.79
2019-01-18T03:12:35.289Z,975.72
2019-01-18T03:13:35.331Z,975.69
2019-01-18T03:14:35.264Z,975.73
2019-01-18T03:15:35.350Z,975.73
2019-01-18T03:16:35.243Z,975.78
2019-01-18T03:17:35.261Z,975.82
2019-01-18T03:18:35.242Z,975.81
2019-01-18T03:19:35.302Z,975.81
2019-01-18T03:20:35.204Z,975.86
2019-01-18T03:21:35.245Z,975.87
2019-01-18T03:22:35.203Z,975.98
2019-01-18T03:23:35.184Z,975.88
2019-01-18T03:24:35.245Z,975.92
2019-01-18T03:25:35.144Z,975.94
2019-01-18T03:26:35.174Z,975.96
2019-01-18T03:27:35.145Z,975.88
2019-01-18T03:28:35.126Z,976.01
2019-01-18T03:29:35.175Z,976.03
2019-01-18T03:30:35.080Z,976.02
2019-01-18T03:31:35.124Z,976.07
2019-01-18T03:32:35.080Z,976.10
2019-01-18T03:33:35.078Z,976.10
2019-01-18T03:34:35.117Z,976.11
2019-01-18T03:35:35.039Z,976.19
2019-01-18T03:36:35.048Z,976.19
2019-01-18T03:37:35.022Z,976.21
2019-01-18T03:38:35.010Z,976.23
2019-01-18T03:39:35.060Z,976.29
2019-01-18T03:40:34.959Z,976.34
2019-01-18T03:41:34.993Z,976.35
2019-01-18T03:42:34.943Z,976.33
2019-01-18T03:43:38.040Z,976.36
2019-01-18T03:44:34.921Z,976.34
2019-01-18T03:45:41.511Z,976.36
2019-01-18T03:46:35.002Z,976.41
2019-01-18T03:47:35.002Z,976.44
2019-01-18T03:48:34.892Z,976.46
2019-01-18T03:49:41.583Z,976.44
2019-01-18T03:50:34.854Z,976.53
2019-01-18T03:51:34.863Z,976.55
2019-01-18T03:52:34.824Z,976.54
2019-01-18T03:53:34.844Z,976.57
2019-01-18T03:54:34.874Z,976.58
2019-01-18T03:55:34.785Z,976.66
2019-01-18T03:56:34.808Z,976.71
2019-01-18T03:57:34.776Z,976.65
2019-01-18T03:58:34.796Z,976.68
2019-01-18T03:59:34.820Z,976.76
2019-01-18T04:00:34.737Z,976.77
2019-01-18T04:01:35.778Z,976.81
2019-01-18T04:02:34.718Z,976.82
2019-01-18T04:03:34.738Z,976.75
2019-01-18T04:04:34.698Z,976.84
2019-01-18T04:05:34.730Z,976.85
2019-01-18T04:06:34.689Z,976.86
2019-01-18T04:07:34.759Z,976.86
2019-01-18T04:08:34.780Z,976.87
2019-01-18T04:09:34.650Z,976.84
2019-01-18T04:10:34.660Z,976.86
2019-01-18T04:11:34.631Z,976.87
2019-01-18T04:12:34.701Z,976.90
2019-01-18T04:13:34.624Z,976.96
2019-01-18T04:14:34.632Z,976.96
2019-01-18T04:15:34.573Z,976.99
2019-01-18T04:16:34.672Z,977.05
2019-01-18T04:17:34.545Z,977.05
2019-01-18T04:18:34.652Z,977.09
2019-01-18T04:19:34.525Z,977.14
2019-01-18T04:20:34.534Z,977.17
2019-01-18T04:21:34.506Z,977.20
2019-01-18T04:22:34.577Z,977.19
2019-01-18T04:23:34.516Z,977.15
2019-01-18T04:24:34.476Z,977.17
2019-01-18T04:25:34.468Z,977.24
2019-01-18T04:26:34.546Z,977.21
2019-01-18T04:27:34.437Z,977.20
2019-01-18T04:28:34.527Z,977.24
2019-01-18T04:29:34.407Z,977.31
2019-01-18T04:30:34.398Z,977.29
2019-01-18T04:31:35.408Z,977.21
2019-01-18T04:32:34.391Z,977.25
2019-01-18T04:33:34.460Z,977.26
2019-01-18T04:34:34.352Z,977.26
2019-01-18T04:35:34.354Z,977.24
2019-01-18T04:36:34.329Z,977.20
2019-01-18T04:37:34.391Z,977.21
2019-01-18T04:38:34.354Z,977.23
2019-01-18T04:39:35.352Z,977.21
2019-01-18T04:40:34.400Z,977.23
2019-01-18T04:41:34.294Z,977.17
2019-01-18T04:42:34.343Z,977.26
2019-01-18T04:43:34.314Z,977.28
2019-01-18T04:44:34.373Z,977.28
2019-01-18T04:45:34.234Z,977.36
2019-01-18T04:46:34.233Z,977.34
2019-01-18T04:47:34.276Z,977.38
2019-01-18T04:48:34.194Z,977.39
2019-01-18T04:49:34.266Z,977.44
2019-01-18T04:50:34.195Z,977.46
2019-01-18T04:51:34.167Z,977.48
2019-01-18T04:52:34.156Z,977.47
2019-01-18T04:53:34.186Z,977.51
2019-01-18T04:54:34.167Z,977.64
2019-01-18T04:55:35.136Z,977.66
2019-01-18T04:56:34.187Z,977.66
2019-01-18T04:57:34.099Z,977.66
2019-01-18T04:58:34.118Z,977.70
2019-01-18T04:59:34.109Z,977.72
2019-01-18T05:00:40.145Z,977.74
2019-01-18T05:01:35.069Z,977.83
2019-01-18T05:02:34.089Z,977.86
2019-01-18T05:03:34.032Z,977.88
2019-01-18T05:04:35.090Z,977.86
2019-01-18T05:05:34.010Z,977.91
2019-01-18T05:06:34.060Z,977.93
2019-01-18T05:07:33.981Z,977.96
2019-01-18T05:08:34.002Z,977.99
2019-01-18T05:09:33.982Z,977.99
2019-01-18T05:10:34.037Z,977.97
2019-01-18T05:11:33.943Z,978.00
2019-01-18T05:12:33.953Z,978.05
2019-01-18T05:13:33.923Z,978.02
2019-01-18T05:14:33.954Z,978.02
2019-01-18T05:15:33.896Z,978.11
2019-01-18T05:16:33.947Z,978.12
2019-01-18T05:17:33.865Z,978.14
2019-01-18T05:18:33.856Z,978.15
2019-01-18T05:19:33.896Z,978.19
2019-01-18T05:20:33.855Z,978.24
2019-01-18T05:21:33.886Z,978.21
2019-01-18T05:22:33.816Z,978.28
2019-01-18T05:23:33.807Z,978.29
2019-01-18T05:24:33.837Z,978.33
2019-01-18T05:25:33.858Z,978.45
2019-01-18T05:26:33.788Z,978.47
2019-01-18T05:27:33.788Z,978.53
2019-01-18T05:28:33.860Z,978.58
2019-01-18T05:29:33.770Z,978.67
2019-01-18T05:30:33.800Z,978.63
2019-01-18T05:31:33.729Z,978.75
2019-01-18T05:32:33.731Z,978.63
2019-01-18T05:33:33.801Z,978.72
2019-01-18T05:34:33.711Z,978.74
2019-01-18T05:35:33.751Z,978.76
2019-01-18T05:36:33.671Z,978.81
2019-01-18T05:37:33.672Z,978.82
2019-01-18T05:38:33.633Z,978.83
2019-01-18T05:39:33.662Z,978.86
2019-01-18T05:40:33.674Z,978.81
2019-01-18T05:41:33.625Z,978.90
2019-01-18T05:42:33.704Z,978.90
2019-01-18T05:43:33.584Z,978.93
2019-01-18T05:44:33.606Z,979.01
2019-01-18T05:45:33.615Z,979.04
2019-01-18T05:46:33.570Z,978.91
2019-01-18T05:47:33.645Z,979.06
2019-01-18T05:48:33.526Z,979.04
2019-01-18T05:49:33.537Z,979.03
2019-01-18T05:50:34.566Z,979.07
2019-01-18T05:51:33.487Z,979.05
2019-01-18T05:52:33.587Z,979.09
2019-01-18T05:53:33.468Z,979.11
2019-01-18T05:54:33.480Z,979.18
2019-01-18T05:55:33.448Z,979.16
2019-01-18T05:56:34.481Z,979.19
2019-01-18T05:57:33.422Z,979.19
2019-01-18T05:58:35.429Z,979.22
2019-01-18T05:59:33.430Z,979.24
2019-01-18T06:00:33.391Z,979.26
2019-01-18T06:01:35.450Z,979.31
2019-01-18T06:02:33.371Z,979.28
2019-01-18T06:03:35.382Z,979.31
2019-01-18T06:04:33.381Z,979.35
2019-01-18T06:05:35.422Z,979.41
2019-01-18T06:06:33.324Z,979.37
2019-01-18T06:07:33.413Z,979.39
2019-01-18T06:08:33.304Z,979.43
2019-01-18T06:09:33.393Z,979.41
2019-01-18T06:10:33.284Z,979.48
2019-01-18T06:11:33.384Z,979.45
2019-01-18T06:12:33.264Z,979.47
2019-01-18T06:13:33.324Z,979.50
2019-01-18T06:14:33.265Z,979.46
2019-01-18T06:15:33.234Z,979.43
2019-01-18T06:16:33.229Z,979.43
2019-01-18T06:17:33.287Z,979.46
2019-01-18T06:18:33.189Z,979.48
2019-01-18T06:19:33.270Z,979.53
2019-01-18T06:20:33.190Z,979.53
2019-01-18T06:21:33.258Z,979.57
2019-01-18T06:22:33.145Z,979.55
2019-01-18T06:23:34.218Z,979.58
2019-01-18T06:24:33.149Z,979.62
2019-01-18T06:25:33.129Z,979.65
2019-01-18T06:26:34.129Z,979.62
2019-01-18T06:27:33.090Z,979.65
2019-01-18T06:28:33.129Z,979.70
2019-01-18T06:29:33.090Z,979.65
2019-01-18T06:30:33.171Z,979.68
2019-01-18T06:31:33.052Z,979.73
2019-01-18T06:32:33.101Z,979.73
2019-01-18T06:33:33.017Z,979.75
2019-01-18T06:34:34.104Z,979.71
2019-01-18T06:35:33.002Z,979.76
2019-01-18T06:36:33.089Z,979.75
2019-01-18T06:37:32.973Z,979.78
2019-01-18T06:38:34.033Z,979.88
2019-01-18T06:39:32.974Z,979.82
2019-01-18T06:40:33.044Z,979.83
2019-01-18T06:41:32.947Z,979.86
2019-01-18T06:42:32.925Z,979.92
2019-01-18T06:43:33.976Z,979.84
2019-01-18T06:44:32.927Z,979.95
2019-01-18T06:45:33.906Z,979.93
2019-01-18T06:46:32.897Z,979.95
2019-01-18T06:47:32.867Z,979.97
2019-01-18T06:48:32.886Z,980.07
2019-01-18T06:49:32.848Z,980.09
2019-01-18T06:50:32.880Z,980.10
2019-01-18T06:51:32.818Z,980.18
2019-01-18T06:52:32.808Z,980.22
2019-01-18T06:53:32.829Z,980.24
2019-01-18T06:54:32.800Z,980.25
2019-01-18T06:55:32.920Z,980.27
2019-01-18T06:56:32.780Z,980.25
2019-01-18T06:57:32.770Z,980.32
2019-01-18T06:58:32.740Z,980.30
2019-01-18T06:59:32.841Z,980.36
2019-01-18T07:00:32.751Z,980.42
2019-01-18T07:01:39.523Z,980.43
2019-01-18T07:02:32.742Z,980.54
2019-01-18T07:03:32.703Z,980.54
2019-01-18T07:04:32.785Z,980.58
2019-01-18T07:05:32.813Z,980.57
2019-01-18T07:06:32.747Z,980.63
2019-01-18T07:07:32.779Z,980.67
2019-01-18T07:08:34.806Z,980.69
2019-01-18T07:09:32.624Z,980.67
2019-01-18T07:10:32.726Z,980.75
2019-01-18T07:11:32.605Z,980.72
2019-01-18T07:12:32.717Z,980.74
2019-01-18T07:13:32.576Z,980.76
2019-01-18T07:14:34.737Z,980.75
2019-01-18T07:15:32.566Z,980.77
2019-01-18T07:16:32.590Z,980.81
2019-01-18T07:17:32.540Z,980.82
2019-01-18T07:18:32.528Z,980.90
2019-01-18T07:19:32.588Z,980.95
2019-01-18T07:20:32.528Z,980.91
2019-01-18T07:21:32.529Z,980.91
2019-01-18T07:22:32.481Z,981.00
2019-01-18T07:23:32.479Z,981.08
2019-01-18T07:24:32.470Z,981.11
2019-01-18T07:25:32.609Z,981.14
2019-01-18T07:26:32.497Z,981.12
2019-01-18T07:27:32.560Z,981.14
2019-01-18T07:28:33.562Z,981.21
2019-01-18T07:29:32.412Z,981.21
2019-01-18T07:30:32.494Z,981.19
2019-01-18T07:31:32.393Z,981.21
2019-01-18T07:32:33.404Z,981.26
2019-01-18T07:33:32.391Z,981.28
2019-01-18T07:34:32.415Z,981.22
2019-01-18T07:35:32.356Z,981.25
2019-01-18T07:36:32.345Z,981.25
2019-01-18T07:37:32.328Z,981.32
2019-01-18T07:38:32.386Z,981.31
2019-01-18T07:39:32.296Z,981.34
2019-01-18T07:40:34.486Z,981.34
2019-01-18T07:41:32.279Z,981.39
2019-01-18T07:42:33.278Z,981.40
2019-01-18T07:43:32.238Z,981.43
2019-01-18T07:44:32.237Z,981.43
2019-01-18T07:45:32.325Z,981.47
2019-01-18T07:46:32.415Z,981.48
2019-01-18T07:47:32.368Z,981.51
2019-01-18T07:48:32.181Z,981.53
2019-01-18T07:49:32.193Z,981.52
2019-01-18T07:50:32.183Z,981.57
2019-01-18T07:51:32.271Z,981.55
2019-01-18T07:52:32.131Z,981.54
2019-01-18T07:53:32.200Z,981.54
2019-01-18T07:54:32.104Z,981.55
2019-01-18T07:55:34.237Z,981.58
2019-01-18T07:56:32.102Z,981.56
2019-01-18T07:57:32.172Z,981.60
2019-01-18T07:58:32.072Z,981.59
2019-01-18T07:59:32.104Z,981.61
2019-01-18T08:00:32.065Z,981.67
2019-01-18T08:01:32.145Z,981.72
2019-01-18T08:02:32.034Z,981.70
2019-01-18T08:03:33.116Z,981.70
2019-01-18T08:04:32.005Z,981.69
2019-01-18T08:05:32.025Z,981.65
2019-01-18T08:06:31.986Z,981.73
2019-01-18T08:07:32.066Z,981.75
2019-01-18T08:08:31.958Z,981.74
2019-01-18T08:09:32.006Z,981.74
2019-01-18T08:10:31.971Z,981.75
2019-01-18T08:11:32.037Z,981.79
2019-01-18T08:12:31.918Z,981.85
2019-01-18T08:13:34.019Z,981.86
2019-01-18T08:14:31.890Z,981.97
2019-01-18T08:15:32.980Z,981.97
2019-01-18T08:16:31.889Z,981.98
2019-01-18T08:17:31.949Z,982.02
2019-01-18T08:18:31.860Z,982.05
2019-01-18T08:19:32.901Z,982.00
2019-01-18T08:20:31.861Z,982.02
2019-01-18T08:21:31.832Z,982.03
2019-01-18T08:22:31.801Z,982.04
2019-01-18T08:23:31.842Z,982.02
2019-01-18T08:24:31.793Z,982.03
2019-01-18T08:25:32.873Z,982.05
2019-01-18T08:26:31.762Z,982.07
2019-01-18T08:27:31.746Z,982.08
2019-01-18T08:28:31.784Z,982.06
2019-01-18T08:29:31.734Z,982.14
2019-01-18T08:30:31.756Z,982.14
2019-01-18T08:31:31.706Z,982.09
2019-01-18T08:32:32.776Z,982.15
2019-01-18T08:33:31.705Z,982.12
2019-01-18T08:34:31.787Z,982.15
2019-01-18T08:35:31.676Z,982.22
2019-01-18T08:36:31.726Z,982.25
2019-01-18T08:37:31.647Z,982.22
2019-01-18T08:38:31.657Z,982.23
2019-01-18T08:39:31.617Z,982.26
2019-01-18T08:40:31.637Z,982.33
2019-01-18T08:41:31.618Z,982.27
2019-01-18T08:42:31.628Z,982.28
2019-01-18T08:43:31.589Z,982.32
2019-01-18T08:44:31.569Z,982.35
2019-01-18T08:45:31.690Z,982.42
2019-01-18T08:46:31.550Z,982.38
2019-01-18T08:47:31.580Z,982.41
2019-01-18T08:48:31.530Z,982.40
2019-01-18T08:49:31.521Z,982.40
2019-01-18T08:50:31.517Z,982.44
2019-01-18T08:51:31.554Z,982.44
2019-01-18T08:52:31.483Z,982.51
2019-01-18T08:53:31.582Z,982.50
2019-01-18T08:54:31.463Z,982.53
2019-01-18T08:55:31.486Z,982.55
2019-01-18T08:56:31.446Z,982.61
2019-01-18T08:57:31.454Z,982.62
2019-01-18T08:58:31.425Z,982.57
2019-01-18T08:59:31.488Z,982.63
2019-01-18T09:00:31.396Z,982.59
2019-01-18T09:01:35.735Z,982.63
2019-01-18T09:02:31.417Z,982.59
2019-01-18T09:03:31.367Z,982.61
2019-01-18T09:04:33.380Z,982.58
2019-01-18T09:05:31.348Z,982.57
2019-01-18T09:06:31.408Z,982.58
2019-01-18T09:07:31.319Z,982.60
2019-01-18T09:08:31.398Z,982.58
2019-01-18T09:09:31.299Z,982.65
2019-01-18T09:10:31.330Z,982.64
2019-01-18T09:11:31.280Z,982.67
2019-01-18T09:12:31.240Z,982.67
2019-01-18T09:13:31.269Z,982.70
2019-01-18T09:14:31.300Z,982.69
2019-01-18T09:15:31.225Z,982.72
2019-01-18T09:16:31.391Z,982.78
2019-01-18T09:17:31.212Z,982.77
2019-01-18T09:18:31.192Z,982.79
2019-01-18T09:19:31.361Z,982.78
2019-01-18T09:20:31.185Z,982.81
2019-01-18T09:21:32.243Z,982.85
2019-01-18T09:22:31.143Z,982.83
2019-01-18T09:23:32.243Z,982.83
2019-01-18T09:24:31.125Z,982.91
2019-01-18T09:25:31.156Z,982.89
2019-01-18T09:26:31.154Z,982.89
2019-01-18T09:27:32.116Z,982.92
2019-01-18T09:28:31.141Z,982.93
2019-01-18T09:29:31.079Z,983.00
2019-01-18T09:30:31.067Z,983.01
2019-01-18T09:31:31.107Z,983.02
2019-01-18T09:32:31.048Z,983.12
2019-01-18T09:33:31.108Z,983.11
2019-01-18T09:34:31.018Z,983.12
2019-01-18T09:35:31.008Z,983.14
2019-01-18T09:36:31.049Z,983.15
2019-01-18T09:37:30.990Z,983.16
2019-01-18T09:38:31.039Z,983.18
2019-01-18T09:39:30.970Z,983.17
2019-01-18T09:40:30.950Z,983.21
2019-01-18T09:41:30.950Z,983.23
2019-01-18T09:42:31.021Z,983.24
2019-01-18T09:43:30.912Z,983.25
2019-01-18T09:44:30.941Z,983.25
2019-01-18T09:45:30.903Z,983.24
2019-01-18T09:46:30.893Z,983.27
2019-01-18T09:47:31.972Z,983.26
2019-01-18T09:48:30.853Z,983.32
2019-01-18T09:49:33.033Z,983.33
2019-01-18T09:50:30.834Z,983.35
2019-01-18T09:51:31.984Z,983.32
2019-01-18T09:52:30.814Z,983.32
2019-01-18T09:53:30.955Z,983.34
2019-01-18T09:54:30.792Z,983.36
2019-01-18T09:55:30.886Z,983.31
2019-01-18T09:56:30.776Z,983.32
2019-01-18T09:57:30.756Z,983.32
2019-01-18T09:58:30.747Z,983.33
2019-01-18T09:59:30.858Z,983.33
2019-01-18T10:00:30.717Z,983.33
2019-01-18T10:01:31.869Z,983.31
2019-01-18T10:02:30.699Z,983.29
2019-01-18T10:03:30.689Z,983.28
2019-01-18T10:04:30.679Z,983.23
2019-01-18T10:05:30.779Z,983.24
2019-01-18T10:06:30.669Z,983.23
2019-01-18T10:07:30.810Z,983.24
2019-01-18T10:08:30.631Z,983.27
2019-01-18T10:09:30.631Z,983.25
2019-01-18T10:10:30.711Z,983.27
2019-01-18T10:11:30.622Z,983.30
2019-01-18T10:12:31.772Z,983.31
2019-01-18T10:13:31.914Z,983.34
2019-01-18T10:14:30.574Z,983.32
2019-01-18T10:15:30.564Z,983.33
2019-01-18T10:16:31.693Z,983.36
2019-01-18T10:17:30.546Z,983.33
2019-01-18T10:18:30.659Z,983.34
2019-01-18T10:19:30.515Z,983.35
2019-01-18T10:20:30.505Z,983.34
2019-01-18T10:21:30.506Z,983.36
2019-01-18T10:22:30.625Z,983.35
2019-01-18T10:23:30.476Z,983.37
2019-01-18T10:24:37.118Z,983.39
2019-01-18T10:25:30.458Z,983.39
2019-01-18T10:26:30.458Z,983.36
2019-01-18T10:27:30.567Z,983.34
2019-01-18T10:28:30.418Z,983.35
2019-01-18T10:29:30.502Z,983.32
2019-01-18T10:30:30.400Z,983.40
2019-01-18T10:31:30.488Z,983.37
2019-01-18T10:32:30.371Z,983.38
2019-01-18T10:33:37.120Z,983.40
2019-01-18T10:34:30.341Z,983.45
2019-01-18T10:35:30.510Z,983.43
2019-01-18T10:36:30.331Z,983.49
2019-01-18T10:37:30.311Z,983.46
2019-01-18T10:38:30.292Z,983.48
2019-01-18T10:39:31.302Z,983.43
2019-01-18T10:40:30.273Z,983.47
2019-01-18T10:41:30.374Z,983.53
2019-01-18T10:42:30.323Z,983.55
2019-01-18T10:43:30.234Z,983.52
2019-01-18T10:44:30.227Z,983.54
2019-01-18T10:45:30.302Z,983.49
2019-01-18T10:46:30.275Z,983.50
2019-01-18T10:47:30.214Z,983.51
2019-01-18T10:48:30.188Z,983.50
2019-01-18T10:49:30.257Z,983.47
2019-01-18T10:50:30.148Z,983.52
2019-01-18T10:51:30.237Z,983.42
2019-01-18T10:52:30.147Z,983.49
2019-01-18T10:53:31.163Z,983.46
2019-01-18T10:54:30.128Z,983.43
2019-01-18T10:55:31.201Z,983.45
2019-01-18T10:56:30.118Z,983.46
2019-01-18T10:57:30.101Z,983.48
2019-01-18T10:58:30.080Z,983.46
2019-01-18T10:59:30.141Z,983.45
2019-01-18T11:00:30.062Z,983.44
2019-01-18T11:01:30.120Z,983.46
2019-01-18T11:02:30.051Z,983.47
2019-01-18T11:03:30.113Z,983.43
2019-01-18T11:04:30.012Z,983.42
2019-01-18T11:05:30.001Z,983.43
2019-01-18T11:06:29.993Z,983.47
2019-01-18T11:07:30.035Z,983.37
2019-01-18T11:08:29.964Z,983.43
2019-01-18T11:09:31.044Z,983.43
2019-01-18T11:10:29.945Z,983.41
2019-01-18T11:11:29.935Z,983.41
2019-01-18T11:12:29.974Z,983.45
2019-01-18T11:13:29.915Z,983.43
2019-01-18T11:14:29.955Z,983.45
2019-01-18T11:15:29.886Z,983.37
2019-01-18T11:16:29.887Z,983.42
2019-01-18T11:17:29.874Z,983.41
2019-01-18T11:18:29.926Z,983.41
2019-01-18T11:19:29.880Z,983.40
2019-01-18T11:20:29.859Z,983.38
2019-01-18T11:21:29.809Z,983.34
2019-01-18T11:22:29.849Z,983.40
2019-01-18T11:23:29.789Z,983.40
2019-01-18T11:24:29.830Z,983.38
2019-01-18T11:25:31.965Z,983.40
2019-01-18T11:26:30.780Z,983.37
2019-01-18T11:27:29.770Z,983.37
2019-01-18T11:28:29.731Z,983.38
2019-01-18T11:29:29.721Z,983.37
2019-01-18T11:30:29.743Z,983.36
2019-01-18T11:31:29.713Z,983.34
2019-01-18T11:32:29.722Z,983.38
2019-01-18T11:33:29.672Z,983.24
2019-01-18T11:34:29.676Z,983.27
2019-01-18T11:35:29.664Z,983.34
2019-01-18T11:36:30.674Z,983.27
2019-01-18T11:37:29.645Z,983.22
2019-01-18T11:38:30.714Z,983.22
2019-01-18T11:39:29.616Z,983.20
2019-01-18T11:40:29.605Z,983.18
2019-01-18T11:41:29.695Z,983.17
2019-01-18T11:42:29.606Z,983.20
2019-01-18T11:43:29.663Z,983.19
2019-01-18T11:44:29.556Z,983.15
2019-01-18T11:45:29.549Z,983.15
2019-01-18T11:46:29.539Z,983.19
2019-01-18T11:47:30.568Z,983.15
2019-01-18T11:48:29.519Z,983.20
2019-01-18T11:49:29.540Z,983.18
2019-01-18T11:50:29.489Z,983.18
2019-01-18T11:51:29.483Z,983.16
2019-01-18T11:52:29.591Z,983.17
2019-01-18T11:53:29.461Z,983.19
2019-01-18T11:54:29.471Z,983.19
2019-01-18T11:55:29.432Z,983.19
2019-01-18T11:56:29.422Z,983.16
2019-01-18T11:57:29.423Z,983.17
2019-01-18T11:58:29.452Z,983.17
2019-01-18T11:59:29.415Z,983.19
2019-01-18T12:00:30.434Z,983.25
2019-01-18T12:01:29.364Z,983.22
2019-01-18T12:02:29.374Z,983.26
2019-01-18T12:03:29.367Z,983.31
2019-01-18T12:04:30.579Z,983.31
2019-01-18T12:05:29.326Z,983.31
2019-01-18T12:06:29.426Z,983.37
2019-01-18T12:07:29.310Z,983.43
2019-01-18T12:08:29.289Z,983.43
2019-01-18T12:09:29.278Z,983.41
2019-01-18T12:10:29.357Z,983.42
2019-01-18T12:11:30.242Z,983.44
2019-01-18T12:12:30.360Z,983.47
2019-01-18T12:13:29.285Z,983.47
2019-01-18T12:14:36.219Z,983.47
2019-01-18T12:15:30.366Z,983.50
2019-01-18T12:16:29.271Z,983.53
2019-01-18T12:17:29.193Z,983.51
2019-01-18T12:18:29.428Z,983.52
2019-01-18T12:19:30.192Z,983.53
2019-01-18T12:20:29.291Z,983.50
2019-01-18T12:21:30.212Z,983.58
2019-01-18T12:22:29.134Z,983.54
2019-01-18T12:23:29.143Z,983.53
2019-01-18T12:24:29.094Z,983.54
2019-01-18T12:25:29.247Z,983.55
2019-01-18T12:26:29.091Z,983.55
2019-01-18T12:27:29.155Z,983.60
2019-01-18T12:28:29.095Z,983.60